createdAt,value
2022-11-27T17:17:58.929Z,1005.55
2022-11-27T17:18:58.803Z,1005.52
2022-11-27T17:19:58.777Z,1005.55
2022-11-27T17:20:58.787Z,1005.53
2022-11-27T17:21:58.750Z,1005.53
2022-11-27T17:22:58.736Z,1005.39
2022-11-27T17:23:58.721Z,1005.37
2022-11-27T17:24:58.722Z,1005.42
2022-11-27T17:25:58.721Z,1005.51
2022-11-27T17:26:58.686Z,1005.56
2022-11-27T17:27:58.672Z,1005.50
2022-11-27T17:28:58.659Z,1005.54
2022-11-27T17:29:58.643Z,1005.57
2022-11-27T17:30:58.641Z,1005.53
2022-11-27T17:31:58.719Z,1005.45
2022-11-27T17:32:58.604Z,1005.40
2022-11-27T17:33:58.703Z,1005.37
2022-11-27T17:34:58.585Z,1005.37
2022-11-27T17:35:58.564Z,1005.26
2022-11-27T17:36:58.569Z,1005.30
2022-11-27T17:37:58.539Z,1005.26
2022-11-27T17:38:58.535Z,1005.24
2022-11-27T17:39:58.516Z,1005.25
2022-11-27T17:40:58.522Z,1005.31
2022-11-27T17:41:58.568Z,1005.26
2022-11-27T17:42:58.480Z,1005.29
2022-11-27T17:43:58.479Z,1005.16
2022-11-27T17:44:58.458Z,1005.16
2022-11-27T17:45:58.478Z,1005.23
2022-11-27T17:46:58.453Z,1005.06
2022-11-27T17:47:58.415Z,1005.00
2022-11-27T17:48:58.406Z,1005.05
2022-11-27T17:49:58.622Z,1005.01
2022-11-27T17:50:58.390Z,1005.08
2022-11-27T17:52:01.824Z,1004.99
2022-11-27T17:52:58.347Z,1005.00
2022-11-27T17:53:58.360Z,1005.02
2022-11-27T17:54:58.333Z,1005.00
2022-11-27T17:55:58.320Z,1005.03
2022-11-27T17:56:58.327Z,1005.04
2022-11-27T17:57:58.281Z,1005.04
2022-11-27T17:58:58.289Z,1005.03
2022-11-27T17:59:58.309Z,1004.95
2022-11-27T18:00:58.346Z,1004.86
2022-11-27T18:01:58.384Z,1004.84
2022-11-27T18:02:58.675Z,1004.83
2022-11-27T18:03:58.212Z,1004.85
2022-11-27T18:04:58.198Z,1004.80
2022-11-27T18:05:58.304Z,1004.82
2022-11-27T18:06:58.204Z,1004.75
2022-11-27T18:07:58.211Z,1004.69
2022-11-27T18:08:58.305Z,1004.67
2022-11-27T18:09:58.215Z,1004.62
2022-11-27T18:10:58.116Z,1004.56
2022-11-27T18:11:58.120Z,1004.56
2022-11-27T18:12:58.107Z,1004.60
2022-11-27T18:13:58.086Z,1004.50
2022-11-27T18:15:01.223Z,1004.51
2022-11-27T18:15:58.059Z,1004.57
2022-11-27T18:16:58.128Z,1004.61
2022-11-27T18:17:58.032Z,1004.64
2022-11-27T18:18:58.040Z,1004.62
2022-11-27T18:19:58.076Z,1004.56
2022-11-27T18:20:57.998Z,1004.58
2022-11-27T18:21:58.145Z,1004.54
2022-11-27T18:22:57.966Z,1004.51
2022-11-27T18:24:22.582Z,1004.50
2022-11-27T18:24:58.938Z,1004.48
2022-11-27T18:25:57.993Z,1004.52
2022-11-27T18:27:08.133Z,1004.46
2022-11-27T18:27:58.901Z,1004.46
2022-11-27T18:28:57.886Z,1004.46
2022-11-27T18:29:57.952Z,1004.47
2022-11-27T18:30:57.860Z,1004.42
2022-11-27T18:31:57.932Z,1004.41
2022-11-27T18:32:57.846Z,1004.41
2022-11-27T18:33:57.823Z,1004.42
2022-11-27T18:34:57.807Z,1004.38
2022-11-27T18:35:57.791Z,1004.41
2022-11-27T18:36:57.804Z,1004.39
2022-11-27T18:37:57.883Z,1004.35
2022-11-27T18:38:57.763Z,1004.42
2022-11-27T18:39:57.775Z,1004.34
2022-11-27T18:40:57.730Z,1004.40
2022-11-27T18:41:57.737Z,1004.41
2022-11-27T18:42:57.711Z,1004.39
2022-11-27T18:43:57.739Z,1004.45
2022-11-27T18:44:57.703Z,1004.49
2022-11-27T18:46:06.696Z,1004.53
2022-11-27T18:46:46.716Z,1004.51
2022-11-27T18:47:42.576Z,1004.52
2022-11-27T18:48:17.096Z,1004.43
2022-11-27T18:49:17.086Z,1004.48
2022-11-27T18:50:17.072Z,1004.45
2022-11-27T18:51:17.055Z,1004.37
2022-11-27T18:52:17.055Z,1004.28
2022-11-27T18:53:17.145Z,1004.19
2022-11-27T18:54:17.018Z,1004.19
2022-11-27T18:55:17.005Z,1004.13
2022-11-27T18:56:16.993Z,1004.15
2022-11-27T18:57:16.991Z,1004.24
2022-11-27T18:58:16.967Z,1004.19
2022-11-27T18:59:18.021Z,1004.18
2022-11-27T19:00:16.939Z,1004.15
2022-11-27T19:01:17.064Z,1004.15
2022-11-27T19:02:16.993Z,1004.08
2022-11-27T19:03:16.901Z,1004.06
2022-11-27T19:04:16.892Z,1004.07
2022-11-27T19:05:16.871Z,1003.99
2022-11-27T19:06:16.865Z,1003.90
2022-11-27T19:07:16.940Z,1003.87
2022-11-27T19:08:16.843Z,1003.80
2022-11-27T19:09:16.941Z,1003.84
2022-11-27T19:10:16.813Z,1003.90
2022-11-27T19:11:16.797Z,1003.89
2022-11-27T19:12:16.805Z,1003.82
2022-11-27T19:13:16.770Z,1003.87
2022-11-27T19:14:16.757Z,1003.82
2022-11-27T19:15:16.744Z,1003.83
2022-11-27T19:16:16.788Z,1003.87
2022-11-27T19:17:16.735Z,1003.79
2022-11-27T19:18:16.704Z,1003.83
2022-11-27T19:20:04.381Z,1003.92
2022-11-27T19:20:17.681Z,1003.90
2022-11-27T19:21:16.667Z,1003.89
2022-11-27T19:22:16.671Z,1003.89
2022-11-27T19:23:16.641Z,1003.79
2022-11-27T19:24:16.649Z,1003.80
2022-11-27T19:25:16.737Z,1003.89
2022-11-27T19:26:16.605Z,1003.87
2022-11-27T19:27:16.589Z,1003.79
2022-11-27T19:28:16.592Z,1003.79
2022-11-27T19:29:16.566Z,1003.70
2022-11-27T19:30:16.556Z,1003.71
2022-11-27T19:31:16.660Z,1003.65
2022-11-27T19:32:16.528Z,1003.68
2022-11-27T19:33:16.538Z,1003.60
2022-11-27T19:34:16.507Z,1003.56
2022-11-27T19:35:16.498Z,1003.59
2022-11-27T19:36:16.474Z,1003.59
2022-11-27T19:37:24.825Z,1003.64
2022-11-27T19:38:16.472Z,1003.60
2022-11-27T19:39:16.441Z,1003.64
2022-11-27T19:40:16.428Z,1003.63
2022-11-27T19:41:16.526Z,1003.60
2022-11-27T19:42:16.400Z,1003.66
2022-11-27T19:43:16.403Z,1003.71
2022-11-27T19:44:16.380Z,1003.66
2022-11-27T19:45:16.363Z,1003.65
2022-11-27T19:46:16.448Z,1003.67
2022-11-27T19:47:16.333Z,1003.66
2022-11-27T19:48:21.509Z,1003.65
2022-11-27T19:49:16.321Z,1003.68
2022-11-27T19:50:16.299Z,1003.62
2022-11-27T19:51:16.286Z,1003.62
2022-11-27T19:52:16.272Z,1003.53
2022-11-27T19:53:16.268Z,1003.61
2022-11-27T19:54:16.246Z,1003.50
2022-11-27T19:55:16.233Z,1003.63
2022-11-27T19:56:16.226Z,1003.60
2022-11-27T19:57:16.320Z,1003.60
2022-11-27T19:58:16.212Z,1003.50
2022-11-27T19:59:16.183Z,1003.52
2022-11-27T20:00:16.177Z,1003.58
2022-11-27T20:01:16.225Z,1003.50
2022-11-27T20:02:16.199Z,1003.60
2022-11-27T20:03:16.156Z,1003.60
2022-11-27T20:04:16.119Z,1003.66
2022-11-27T20:05:16.107Z,1003.61
2022-11-27T20:06:16.101Z,1003.60
2022-11-27T20:07:16.186Z,1003.62
2022-11-27T20:08:16.358Z,1003.56
2022-11-27T20:09:16.083Z,1003.67
2022-11-27T20:10:16.043Z,1003.61
2022-11-27T20:11:16.034Z,1003.64
2022-11-27T20:12:16.013Z,1003.52
2022-11-27T20:13:16.115Z,1003.43
2022-11-27T20:14:16.009Z,1003.41
2022-11-27T20:15:15.977Z,1003.43
2022-11-27T20:16:16.012Z,1003.37
2022-11-27T20:17:15.947Z,1003.33
2022-11-27T20:18:15.942Z,1003.32
2022-11-27T20:19:15.992Z,1003.41
2022-11-27T20:20:15.918Z,1003.38
2022-11-27T20:21:15.909Z,1003.38
2022-11-27T20:22:15.888Z,1003.32
2022-11-27T20:23:15.887Z,1003.27
2022-11-27T20:24:15.879Z,1003.27
2022-11-27T20:25:20.453Z,1003.21
2022-11-27T20:26:15.835Z,1003.31
2022-11-27T20:27:15.829Z,1003.22
2022-11-27T20:28:15.810Z,1003.17
2022-11-27T20:29:15.929Z,1003.17
2022-11-27T20:30:15.783Z,1003.29
2022-11-27T20:31:15.834Z,1003.17
2022-11-27T20:32:15.757Z,1003.08
2022-11-27T20:33:15.740Z,1003.05
2022-11-27T20:34:15.747Z,1003.04
2022-11-27T20:35:15.718Z,1003.11
2022-11-27T20:36:15.742Z,1003.04
2022-11-27T20:37:15.691Z,1002.91
2022-11-27T20:38:15.679Z,1002.81
2022-11-27T20:39:20.840Z,1002.88
2022-11-27T20:40:15.654Z,1002.85
2022-11-27T20:41:15.643Z,1002.85
2022-11-27T20:42:15.630Z,1002.89
2022-11-27T20:43:15.613Z,1002.88
2022-11-27T20:44:15.623Z,1002.92
2022-11-27T20:45:20.138Z,1003.01
2022-11-27T20:46:16.610Z,1002.99
2022-11-27T20:47:15.561Z,1002.93
2022-11-27T20:48:15.555Z,1003.00
2022-11-27T20:49:15.557Z,1002.83
2022-11-27T20:50:15.526Z,1002.71
2022-11-27T20:51:15.516Z,1002.75
2022-11-27T20:52:15.497Z,1002.71
2022-11-27T20:53:15.496Z,1002.62
2022-11-27T20:54:15.487Z,1002.61
2022-11-27T20:55:15.460Z,1002.55
2022-11-27T20:56:15.448Z,1002.56
2022-11-27T20:57:15.434Z,1002.55
2022-11-27T20:58:15.427Z,1002.60
2022-11-27T20:59:15.427Z,1002.57
2022-11-27T21:00:15.396Z,1002.54
2022-11-27T21:01:15.580Z,1002.44
2022-11-27T21:02:15.442Z,1002.26
2022-11-27T21:03:15.357Z,1002.23
2022-11-27T21:04:15.361Z,1002.10
2022-11-27T21:05:15.335Z,1002.07
2022-11-27T21:06:15.318Z,1002.18
2022-11-27T21:07:15.371Z,1002.54
2022-11-27T21:08:15.304Z,1002.68
2022-11-27T21:09:15.305Z,1002.81
2022-11-27T21:10:15.268Z,1002.94
2022-11-27T21:11:15.269Z,1003.10
2022-11-27T21:12:15.243Z,1003.03
2022-11-27T21:13:15.231Z,1002.98
2022-11-27T21:14:15.247Z,1003.05
2022-11-27T21:15:15.204Z,1002.87
2022-11-27T21:16:15.207Z,1002.89
2022-11-27T21:17:15.344Z,1002.97
2022-11-27T21:18:15.167Z,1003.18
2022-11-27T21:19:15.166Z,1003.28
2022-11-27T21:20:15.138Z,1003.28
2022-11-27T21:21:15.126Z,1003.29
2022-11-27T21:22:15.114Z,1003.20
2022-11-27T21:23:15.099Z,1003.20
2022-11-27T21:24:15.108Z,1003.22
2022-11-27T21:25:15.079Z,1003.35
2022-11-27T21:26:15.076Z,1003.27
2022-11-27T21:27:15.055Z,1003.25
2022-11-27T21:28:15.038Z,1003.26
2022-11-27T21:29:15.043Z,1003.25
2022-11-27T21:30:15.013Z,1003.27
2022-11-27T21:31:15.058Z,1003.41
2022-11-27T21:32:15.084Z,1003.26
2022-11-27T21:33:15.095Z,1003.23
2022-11-27T21:34:14.979Z,1003.19
2022-11-27T21:35:14.948Z,1003.18
2022-11-27T21:36:14.941Z,1003.10
2022-11-27T21:37:14.923Z,1003.10
2022-11-27T21:38:14.909Z,1003.06
2022-11-27T21:39:14.910Z,1003.00
2022-11-27T21:40:14.880Z,1003.06
2022-11-27T21:41:14.868Z,1003.07
2022-11-27T21:42:14.871Z,1003.02
2022-11-27T21:43:14.858Z,1002.96
2022-11-27T21:44:14.865Z,1002.93
2022-11-27T21:45:14.816Z,1002.97
2022-11-27T21:46:14.896Z,1002.98
2022-11-27T21:47:14.853Z,1002.99
2022-11-27T21:48:14.837Z,1002.86
2022-11-27T21:49:14.916Z,1002.77
2022-11-27T21:50:14.774Z,1002.79
2022-11-27T21:51:14.736Z,1002.71
2022-11-27T21:52:14.728Z,1002.66
2022-11-27T21:53:14.722Z,1002.69
2022-11-27T21:54:14.709Z,1002.67
2022-11-27T21:55:14.709Z,1002.63
2022-11-27T21:56:14.676Z,1002.60
2022-11-27T21:57:14.675Z,1002.53
2022-11-27T21:58:14.648Z,1002.56
2022-11-27T21:59:14.648Z,1002.39
2022-11-27T22:00:14.645Z,1002.55
2022-11-27T22:01:14.720Z,1002.49
2022-11-27T22:02:14.609Z,1002.45
2022-11-27T22:03:14.589Z,1002.45
2022-11-27T22:04:14.575Z,1002.48
2022-11-27T22:05:14.690Z,1002.51
2022-11-27T22:06:14.566Z,1002.50
2022-11-27T22:07:14.562Z,1002.44
2022-11-27T22:08:14.523Z,1002.45
2022-11-27T22:09:16.107Z,1002.42
2022-11-27T22:10:14.510Z,1002.40
2022-11-27T22:11:14.483Z,1002.41
2022-11-27T22:12:14.470Z,1002.36
2022-11-27T22:13:14.461Z,1002.41
2022-11-27T22:14:14.444Z,1002.37
2022-11-27T22:15:14.454Z,1002.40
2022-11-27T22:16:14.480Z,1002.30
2022-11-27T22:17:14.465Z,1002.22
2022-11-27T22:18:14.393Z,1002.27
2022-11-27T22:19:14.741Z,1002.23
2022-11-27T22:20:14.386Z,1002.26
2022-11-27T22:21:14.465Z,1002.36
2022-11-27T22:22:14.346Z,1002.24
2022-11-27T22:23:14.326Z,1002.19
2022-11-27T22:24:19.045Z,1002.12
2022-11-27T22:25:14.321Z,1002.19
2022-11-27T22:26:14.293Z,1002.12
2022-11-27T22:27:14.277Z,1002.09
2022-11-27T22:28:14.265Z,1002.01
2022-11-27T22:29:14.251Z,1001.97
2022-11-27T22:30:14.810Z,1002.05
2022-11-27T22:31:14.369Z,1001.83
2022-11-27T22:32:14.214Z,1001.91
2022-11-27T22:33:14.212Z,1001.86
2022-11-27T22:34:14.239Z,1001.89
2022-11-27T22:35:14.196Z,1001.70
2022-11-27T22:36:14.165Z,1001.69
2022-11-27T22:37:14.262Z,1001.67
2022-11-27T22:38:14.150Z,1001.68
2022-11-27T22:39:14.130Z,1001.82
2022-11-27T22:40:14.126Z,1001.88
2022-11-27T22:41:14.101Z,1001.89
2022-11-27T22:42:14.087Z,1001.94
2022-11-27T22:43:14.073Z,1001.92
2022-11-27T22:44:14.058Z,1001.88
2022-11-27T22:45:14.081Z,1001.86
2022-11-27T22:46:14.092Z,1001.89
2022-11-27T22:47:14.030Z,1001.90
2022-11-27T22:48:14.007Z,1001.82
2022-11-27T22:49:13.992Z,1001.72
2022-11-27T22:50:14.011Z,1001.62
2022-11-27T22:51:13.985Z,1001.72
2022-11-27T22:52:13.977Z,1001.75
2022-11-27T22:53:14.058Z,1001.76
2022-11-27T22:54:13.944Z,1001.79
2022-11-27T22:55:13.918Z,1001.82
2022-11-27T22:56:13.922Z,1001.83
2022-11-27T22:57:13.894Z,1001.85
2022-11-27T22:58:13.878Z,1001.76
2022-11-27T22:59:43.748Z,1001.73
2022-11-27T23:00:14.859Z,1001.79
2022-11-27T23:01:13.881Z,1001.75
2022-11-27T23:02:13.872Z,1001.72
2022-11-27T23:03:13.912Z,1001.64
2022-11-27T23:04:13.802Z,1001.68
2022-11-27T23:05:13.784Z,1001.58
2022-11-27T23:06:13.797Z,1001.63
2022-11-27T23:07:13.834Z,1001.58
2022-11-27T23:08:13.801Z,1001.58
2022-11-27T23:09:13.854Z,1001.60
2022-11-27T23:10:13.740Z,1001.60
2022-11-27T23:11:13.753Z,1001.60
2022-11-27T23:12:13.705Z,1001.64
2022-11-27T23:13:13.683Z,1001.66
2022-11-27T23:14:13.674Z,1001.67
2022-11-27T23:15:13.661Z,1001.64
2022-11-27T23:16:13.701Z,1001.63
2022-11-27T23:17:13.635Z,1001.65
2022-11-27T23:18:13.627Z,1001.60
2022-11-27T23:19:13.646Z,1001.62
2022-11-27T23:20:13.603Z,1001.62
2022-11-27T23:21:13.607Z,1001.61
2022-11-27T23:22:13.573Z,1001.58
2022-11-27T23:23:13.559Z,1001.51
2022-11-27T23:24:13.549Z,1001.44
2022-11-27T23:25:13.650Z,1001.43
2022-11-27T23:26:17.889Z,1001.37
2022-11-27T23:27:13.506Z,1001.38
2022-11-27T23:28:13.494Z,1001.30
2022-11-27T23:29:13.484Z,1001.29
2022-11-27T23:30:13.468Z,1001.25
2022-11-27T23:31:29.371Z,1001.29
2022-11-27T23:32:14.524Z,1001.32
2022-11-27T23:33:13.435Z,1001.27
2022-11-27T23:34:13.416Z,1001.21
2022-11-27T23:35:13.409Z,1001.20
2022-11-27T23:36:13.390Z,1001.15
2022-11-27T23:37:13.401Z,1001.20
2022-11-27T23:38:13.364Z,1001.18
2022-11-27T23:39:13.365Z,1001.19
2022-11-27T23:40:13.342Z,1001.20
2022-11-27T23:41:13.444Z,1001.17
2022-11-27T23:42:13.339Z,1001.23
2022-11-27T23:43:13.304Z,1001.22
2022-11-27T23:44:13.289Z,1001.22
2022-11-27T23:45:13.278Z,1001.26
2022-11-27T23:46:13.298Z,1001.29
2022-11-27T23:47:13.265Z,1001.28
2022-11-27T23:48:13.244Z,1001.28
2022-11-27T23:49:13.227Z,1001.27
2022-11-27T23:50:13.226Z,1001.27
2022-11-27T23:51:13.216Z,1001.31
2022-11-27T23:52:17.131Z,1001.26
2022-11-27T23:53:13.187Z,1001.31
2022-11-27T23:54:13.172Z,1001.30
2022-11-27T23:55:13.151Z,1001.33
2022-11-27T23:56:13.135Z,1001.33
2022-11-27T23:57:13.286Z,1001.36
2022-11-27T23:58:13.112Z,1001.29
2022-11-27T23:59:13.101Z,1001.31
